Singer, Louisiana
Current Conditions -  °F | °C
As of 7:15 AM on Sunday 23 Nov 2014 (Local Time) from KDRI Reporting Station
Moderate Rain Moderate Rain  
Wind Chill: 61°   Ceiling: 400
Heat Index: 61°   Visibility: 5mi
Dew Point: 60°   Wind: 10mph
Humidity: 96%   Direction: 230°SW
Pressure: 29.62"   Gusts: 20mph
Location:  30.66°N, 93.41°W
Report Text: KDRI 231315Z AUTO 23009G17KT 5SM RA BKN004 OVC050 16/15 A2962 RMK AO2 T01600153
Loading
Personal Weather Stations






























Interactive Weather Map New forecast layout! Learn more

10-Day Weather Forecast

Advertisements
Track Severe Weather on mobile